Time;durP1;ratioP1;P1;durP2;ratioP2;P2;SDS_P1;SDS_P2;PMS_P1;PMS_P2;Temp;Humidity;BMP_temperature;BMP_pressure;BME280_temperature;BME280_humidity;BME280_pressure;Samples;Min_cycle;Max_cycle;Signal;HPM_P1;HPM_P2
2023/06/02 00:00:25;;;;;;;7.60;3.40;;;;;;;;;;5066079;28;20449;-79
2023/06/02 00:02:55;;;;;;;8.60;2.80;;;;;;;;;;5065242;28;20450;-79
2023/06/02 00:05:25;;;;;;;18.03;3.67;;;;;;;;;;5066795;28;20465;-79
2023/06/02 00:07:52;;;;;;;11.43;3.47;;;;;;;;;;5066997;28;20461;-80
2023/06/02 00:10:22;;;;;;;11.73;3.10;;;;;;;;;;5063351;28;20454;-80
2023/06/02 00:12:49;;;;;;;12.63;3.33;;;;;;;;;;5062015;28;20473;-80
2023/06/02 00:15:18;;;;;;;14.33;2.50;;;;;;;;;;5062411;28;20492;-77
2023/06/02 00:17:46;;;;;;;8.50;2.93;;;;;;;;;;5062554;28;20730;-80
2023/06/02 00:20:18;;;;;;;12.73;3.50;;;;;;;;;;5062345;28;20599;-80
2023/06/02 00:22:46;;;;;;;10.73;3.70;;;;;;;;;;5063062;28;20481;-80
2023/06/02 00:25:14;;;;;;;7.97;2.67;;;;;;;;;;5067603;28;20444;-80
2023/06/02 00:27:43;;;;;;;7.63;2.90;;;;;;;;;;5066117;28;20468;-81
2023/06/02 00:30:11;;;;;;;10.30;3.30;;;;;;;;;;5065204;28;20493;-79
2023/06/02 00:32:38;;;;;;;9.37;3.10;;;;;;;;;;5063240;28;20458;-80
2023/06/02 00:35:06;;;;;;;13.57;3.13;;;;;;;;;;5062891;28;20494;-80
2023/06/02 00:37:35;;;;;;;8.50;2.93;;;;;;;;;;5063566;28;20501;-80
2023/06/02 00:40:06;;;;;;;9.87;2.47;;;;;;;;;;5062579;28;20466;-80
2023/06/02 00:42:34;;;;;;;25.03;4.10;;;;;;;;;;5065112;28;20544;-79
2023/06/02 00:45:04;;;;;;;8.87;2.30;;;;;;;;;;5063641;28;20450;-80
2023/06/02 00:47:33;;;;;;;6.77;2.80;;;;;;;;;;5063853;28;20446;-80
2023/06/02 00:50:00;;;;;;;7.10;2.57;;;;;;;;;;5063010;28;20478;-80
2023/06/02 00:52:29;;;;;;;16.53;3.10;;;;;;;;;;5064908;28;20456;-80
2023/06/02 00:54:57;;;;;;;8.60;2.30;;;;;;;;;;5066349;28;20489;-78
2023/06/02 00:57:28;;;;;;;7.77;2.70;;;;;;;;;;5066213;28;20472;-80
2023/06/02 00:59:56;;;;;;;10.10;2.73;;;;;;;;;;5066309;28;20457;-80
2023/06/02 01:02:24;;;;;;;8.17;2.50;;;;;;;;;;5064476;28;20521;-80
2023/06/02 01:04:52;;;;;;;9.50;2.77;;;;;;;;;;5063601;28;20464;-79
2023/06/02 01:07:23;;;;;;;8.20;2.60;;;;;;;;;;5064936;28;20449;-80
2023/06/02 01:09:51;;;;;;;10.60;3.10;;;;;;;;;;5060767;28;20450;-79
2023/06/02 01:12:20;;;;;;;10.37;2.83;;;;;;;;;;5063410;28;20446;-80
2023/06/02 01:14:48;;;;;;;7.87;2.70;;;;;;;;;;5061565;28;20791;-81
2023/06/02 01:17:17;;;;;;;20.40;4.13;;;;;;;;;;5062486;28;20458;-79
2023/06/02 01:19:46;;;;;;;11.40;3.00;;;;;;;;;;5063056;28;20486;-79
2023/06/02 01:22:17;;;;;;;12.10;3.40;;;;;;;;;;5066226;28;20466;-80
2023/06/02 01:24:48;;;;;;;20.03;3.77;;;;;;;;;;5062538;28;20515;-80
2023/06/02 01:27:16;;;;;;;11.17;3.00;;;;;;;;;;5062197;28;20473;-80
2023/06/02 01:29:44;;;;;;;7.30;3.37;;;;;;;;;;5060526;28;20884;-80
2023/06/02 01:32:15;;;;;;;10.13;3.17;;;;;;;;;;5062190;28;20561;-80
2023/06/02 01:34:45;;;;;;;10.67;3.20;;;;;;;;;;5064975;28;20489;-79
2023/06/02 01:37:14;;;;;;;13.00;3.60;;;;;;;;;;5062043;28;20454;-81
2023/06/02 01:39:41;;;;;;;14.87;2.83;;;;;;;;;;5062502;28;20464;-81
2023/06/02 01:42:15;;;;;;;9.90;3.37;;;;;;;;;;5062171;28;20492;-80
2023/06/02 01:44:44;;;;;;;9.53;3.03;;;;;;;;;;5063747;28;20450;-81
2023/06/02 01:47:11;;;;;;;14.23;3.97;;;;;;;;;;5063214;28;20466;-80
2023/06/02 01:49:38;;;;;;;13.03;4.60;;;;;;;;;;5062281;28;20473;-81
2023/06/02 01:52:06;;;;;;;10.27;3.30;;;;;;;;;;5063461;28;20462;-81
2023/06/02 01:54:33;;;;;;;12.20;3.00;;;;;;;;;;5078415;28;20768;-82
2023/06/02 01:57:03;;;;;;;13.87;3.73;;;;;;;;;;5082977;28;20457;-80
2023/06/02 01:59:32;;;;;;;8.60;3.13;;;;;;;;;;5086089;28;20461;-79
2023/06/02 02:02:00;;;;;;;10.00;3.50;;;;;;;;;;5088170;28;20469;-79
2023/06/02 02:04:27;;;;;;;11.93;3.10;;;;;;;;;;5085763;28;20469;-80
2023/06/02 02:06:55;;;;;;;13.10;5.10;;;;;;;;;;5086990;28;20446;-80
2023/06/02 02:09:22;;;;;;;16.90;3.77;;;;;;;;;;5085499;28;20475;-79
2023/06/02 02:11:50;;;;;;;17.10;3.80;;;;;;;;;;5088195;28;20437;-79
2023/06/02 02:14:19;;;;;;;9.30;3.43;;;;;;;;;;5086318;28;20573;-78
2023/06/02 02:16:49;;;;;;;15.47;4.13;;;;;;;;;;5088624;28;20554;-79
2023/06/02 02:19:17;;;;;;;13.10;3.73;;;;;;;;;;5090010;28;20461;-79
2023/06/02 02:21:44;;;;;;;12.00;4.83;;;;;;;;;;5087649;28;20456;-78
2023/06/02 02:24:12;;;;;;;16.27;3.63;;;;;;;;;;5087921;28;20449;-79
2023/06/02 02:26:39;;;;;;;15.50;3.83;;;;;;;;;;5086804;28;20460;-78
2023/06/02 02:29:06;;;;;;;9.50;3.43;;;;;;;;;;5088441;28;20461;-80
2023/06/02 02:31:34;;;;;;;19.50;5.83;;;;;;;;;;5085626;28;20496;-80
2023/06/02 02:34:03;;;;;;;16.37;6.43;;;;;;;;;;5088264;28;20463;-79
2023/06/02 02:36:32;;;;;;;13.20;3.20;;;;;;;;;;5082974;28;20485;-80
2023/06/02 02:38:59;;;;;;;13.60;3.90;;;;;;;;;;5085793;28;20481;-79
2023/06/02 02:41:27;;;;;;;9.93;3.70;;;;;;;;;;5080368;28;20987;-80
2023/06/02 02:43:54;;;;;;;13.50;3.70;;;;;;;;;;5082256;28;20469;-79
2023/06/02 02:46:22;;;;;;;17.50;3.90;;;;;;;;;;5072891;28;20472;-79
2023/06/02 02:48:49;;;;;;;22.73;4.03;;;;;;;;;;5080929;28;20456;-79
2023/06/02 02:51:18;;;;;;;11.37;5.13;;;;;;;;;;5082537;28;20453;-79
2023/06/02 02:53:45;;;;;;;11.10;3.33;;;;;;;;;;5082971;28;20497;-81
2023/06/02 02:56:12;;;;;;;15.27;4.03;;;;;;;;;;5082919;28;20491;-79
2023/06/02 02:58:40;;;;;;;15.30;3.90;;;;;;;;;;5085402;28;20441;-79
2023/06/02 03:01:16;;;;;;;15.90;5.27;;;;;;;;;;5085323;28;20453;-80
2023/06/02 03:03:44;;;;;;;16.30;3.90;;;;;;;;;;5086541;28;20448;-80
2023/06/02 03:06:18;;;;;;;13.10;3.83;;;;;;;;;;5085477;28;20891;-79
2023/06/02 03:08:46;;;;;;;15.80;3.23;;;;;;;;;;5088395;28;20461;-80
2023/06/02 03:11:14;;;;;;;16.40;3.70;;;;;;;;;;5088668;28;20453;-79
2023/06/02 03:13:41;;;;;;;8.80;3.53;;;;;;;;;;5086374;28;20477;-79
2023/06/02 03:16:09;;;;;;;12.87;3.97;;;;;;;;;;5083546;28;20503;-78
2023/06/02 03:18:37;;;;;;;19.07;4.00;;;;;;;;;;5085044;28;20548;-79
2023/06/02 03:21:05;;;;;;;16.17;3.73;;;;;;;;;;5081677;28;20468;-81
2023/06/02 03:23:32;;;;;;;9.10;4.00;;;;;;;;;;5084741;28;20491;-77
2023/06/02 03:26:02;;;;;;;16.93;4.97;;;;;;;;;;5086548;28;20456;-78
2023/06/02 03:28:29;;;;;;;14.20;3.90;;;;;;;;;;5083763;28;20485;-79
2023/06/02 03:30:57;;;;;;;16.97;5.03;;;;;;;;;;5085422;28;20462;-80
2023/06/02 03:33:24;;;;;;;15.07;5.00;;;;;;;;;;5086735;28;20455;-79
2023/06/02 03:35:52;;;;;;;10.93;4.37;;;;;;;;;;5085048;28;20489;-77
2023/06/02 03:38:20;;;;;;;17.93;7.77;;;;;;;;;;5089469;28;20464;-77
2023/06/02 03:40:47;;;;;;;11.97;3.70;;;;;;;;;;5085751;28;20522;-78
2023/06/02 03:43:16;;;;;;;11.40;4.17;;;;;;;;;;5087497;28;20861;-78
2023/06/02 03:45:43;;;;;;;16.70;3.80;;;;;;;;;;5084051;28;20453;-79
2023/06/02 03:48:11;;;;;;;28.57;5.60;;;;;;;;;;5085333;28;20452;-78
2023/06/02 03:50:41;;;;;;;14.60;3.47;;;;;;;;;;5081683;28;20549;-79
2023/06/02 03:53:08;;;;;;;11.90;3.70;;;;;;;;;;5081456;28;20502;-79
2023/06/02 03:55:35;;;;;;;15.50;3.57;;;;;;;;;;5079624;28;20488;-80
2023/06/02 03:58:03;;;;;;;15.53;3.20;;;;;;;;;;5081882;28;20460;-81
2023/06/02 04:00:32;;;;;;;20.50;4.10;;;;;;;;;;5081742;28;20464;-80
2023/06/02 04:02:59;;;;;;;16.33;4.27;;;;;;;;;;5081613;28;20473;-80
2023/06/02 04:05:26;;;;;;;18.93;3.80;;;;;;;;;;5082465;28;20480;-81
2023/06/02 04:07:56;;;;;;;18.03;4.53;;;;;;;;;;5083245;28;20461;-80
2023/06/02 04:10:23;;;;;;;19.77;5.00;;;;;;;;;;5083053;28;20457;-79
2023/06/02 04:12:50;;;;;;;16.83;3.87;;;;;;;;;;5082542;28;20485;-80
2023/06/02 04:15:18;;;;;;;19.60;4.90;;;;;;;;;;5082922;28;20457;-80
2023/06/02 04:17:47;;;;;;;14.50;4.10;;;;;;;;;;5082946;28;20449;-80
2023/06/02 04:20:15;;;;;;;10.70;4.50;;;;;;;;;;5080201;28;20457;-80
2023/06/02 04:22:43;;;;;;;23.53;5.87;;;;;;;;;;5082190;28;20520;-78
2023/06/02 04:25:10;;;;;;;13.30;4.13;;;;;;;;;;5083751;28;20448;-79
2023/06/02 04:27:37;;;;;;;14.67;4.23;;;;;;;;;;5083462;28;20429;-80
2023/06/02 04:30:08;;;;;;;16.97;3.40;;;;;;;;;;5081277;28;20481;-79
2023/06/02 04:32:36;;;;;;;14.90;4.90;;;;;;;;;;5077134;28;20456;-80
2023/06/02 04:35:06;;;;;;;15.00;4.00;;;;;;;;;;5079174;28;20491;-81
2023/06/02 04:37:33;;;;;;;18.77;5.43;;;;;;;;;;5077553;28;20808;-80
2023/06/02 04:40:04;;;;;;;20.93;5.27;;;;;;;;;;5080498;28;20510;-81
2023/06/02 04:42:32;;;;;;;22.13;5.00;;;;;;;;;;5077455;28;20723;-79
2023/06/02 04:45:01;;;;;;;11.27;3.80;;;;;;;;;;5078066;28;20485;-78
2023/06/02 04:47:28;;;;;;;25.80;5.10;;;;;;;;;;5079517;28;20750;-79
2023/06/02 04:49:56;;;;;;;13.07;5.47;;;;;;;;;;5077999;28;20456;-78
2023/06/02 04:52:24;;;;;;;17.97;4.43;;;;;;;;;;5079260;28;20453;-79
2023/06/02 04:54:52;;;;;;;9.00;3.73;;;;;;;;;;5077360;28;20495;-79
2023/06/02 04:57:19;;;;;;;14.80;4.57;;;;;;;;;;5083694;28;20471;-78
2023/06/02 04:59:46;;;;;;;11.73;4.60;;;;;;;;;;5082025;28;20465;-79
2023/06/02 05:02:16;;;;;;;13.53;4.77;;;;;;;;;;5080731;28;20461;-79
2023/06/02 05:04:44;;;;;;;10.63;3.70;;;;;;;;;;5083460;28;20464;-79
2023/06/02 05:07:15;;;;;;;20.60;4.53;;;;;;;;;;5087082;28;20452;-80
2023/06/02 05:09:44;;;;;;;17.33;5.27;;;;;;;;;;5085962;28;20445;-80
2023/06/02 05:12:12;;;;;;;20.77;4.70;;;;;;;;;;5082559;28;20952;-80
2023/06/02 05:14:40;;;;;;;17.80;4.07;;;;;;;;;;5063869;28;20556;-80
2023/06/02 05:17:08;;;;;;;14.90;4.07;;;;;;;;;;5062032;28;20792;-79
2023/06/02 05:19:36;;;;;;;14.60;3.80;;;;;;;;;;5063487;28;20488;-78
2023/06/02 05:22:05;;;;;;;12.63;3.53;;;;;;;;;;5060702;28;20449;-78
2023/06/02 05:24:34;;;;;;;16.30;4.50;;;;;;;;;;5058981;28;20453;-79
2023/06/02 05:27:14;;;;;;;14.20;4.03;;;;;;;;;;5062227;28;20885;-79
2023/06/02 05:29:41;;;;;;;18.90;4.83;;;;;;;;;;5059265;28;20481;-78
2023/06/02 05:32:09;;;;;;;18.80;5.73;;;;;;;;;;5059200;28;20693;-79
2023/06/02 05:34:37;;;;;;;13.17;3.63;;;;;;;;;;5054039;28;20471;-79
2023/06/02 05:37:04;;;;;;;21.90;4.33;;;;;;;;;;5056588;28;20469;-80
2023/06/02 05:39:32;;;;;;;12.63;4.17;;;;;;;;;;5055742;28;20507;-80
2023/06/02 05:42:00;;;;;;;13.07;4.37;;;;;;;;;;5055828;28;21001;-79
2023/06/02 05:44:29;;;;;;;15.17;4.00;;;;;;;;;;5055753;28;20454;-79
2023/06/02 05:47:04;;;;;;;13.37;3.97;;;;;;;;;;5055855;28;20457;-79
2023/06/02 05:49:35;;;;;;;14.40;5.20;;;;;;;;;;5060983;28;20458;-79
2023/06/02 05:52:02;;;;;;;21.53;4.80;;;;;;;;;;5060438;28;20458;-79
2023/06/02 05:54:32;;;;;;;9.87;4.10;;;;;;;;;;5059622;28;20446;-78
2023/06/02 05:57:03;;;;;;;7.67;2.90;;;;;;;;;;5060565;28;20761;-79
2023/06/02 05:59:33;;;;;;;9.37;3.80;;;;;;;;;;5056809;28;20940;-80
2023/06/02 06:02:00;;;;;;;14.10;4.33;;;;;;;;;;5059887;28;20765;-80
2023/06/02 06:04:28;;;;;;;9.47;3.87;;;;;;;;;;5052831;28;21100;-79
2023/06/02 06:06:55;;;;;;;16.10;5.47;;;;;;;;;;5058852;28;20477;-78
2023/06/02 06:09:23;;;;;;;9.30;4.53;;;;;;;;;;5056597;28;20432;-79
2023/06/02 06:11:50;;;;;;;7.87;3.23;;;;;;;;;;5059255;28;20446;-77
2023/06/02 06:14:18;;;;;;;10.43;2.73;;;;;;;;;;5074829;28;20477;-78
2023/06/02 06:16:47;;;;;;;10.73;3.37;;;;;;;;;;5079289;28;20516;-78
2023/06/02 06:19:15;;;;;;;12.33;4.10;;;;;;;;;;5078090;28;20468;-79
2023/06/02 06:21:42;;;;;;;10.17;3.60;;;;;;;;;;5081049;28;20540;-79
2023/06/02 06:24:09;;;;;;;12.77;3.50;;;;;;;;;;5079396;28;20457;-78
2023/06/02 06:26:37;;;;;;;9.17;3.77;;;;;;;;;;5079670;28;20461;-78
2023/06/02 06:29:04;;;;;;;9.63;3.77;;;;;;;;;;5076153;28;20441;-80
2023/06/02 06:31:32;;;;;;;10.80;4.60;;;;;;;;;;5076889;28;20660;-79
2023/06/02 06:34:02;;;;;;;14.30;3.80;;;;;;;;;;5078156;28;20489;-80
2023/06/02 06:36:30;;;;;;;10.80;3.50;;;;;;;;;;5081696;28;20479;-80
2023/06/02 06:38:57;;;;;;;9.60;3.23;;;;;;;;;;5081503;28;20487;-79
2023/06/02 06:41:25;;;;;;;11.70;3.30;;;;;;;;;;5078729;28;20550;-79
2023/06/02 06:43:53;;;;;;;9.70;3.70;;;;;;;;;;5080046;28;20437;-79
2023/06/02 06:46:20;;;;;;;10.40;4.03;;;;;;;;;;5079464;28;21049;-80
2023/06/02 06:48:47;;;;;;;13.23;4.33;;;;;;;;;;5079192;28;20460;-80
2023/06/02 06:51:21;;;;;;;13.87;4.00;;;;;;;;;;5078811;28;20461;-78
2023/06/02 06:53:52;;;;;;;9.60;4.20;;;;;;;;;;5078879;28;20465;-79
2023/06/02 06:56:20;;;;;;;12.00;3.90;;;;;;;;;;5076468;28;20768;-79
2023/06/02 06:58:50;;;;;;;12.67;3.83;;;;;;;;;;5062123;28;20464;-78
2023/06/02 07:01:17;;;;;;;13.00;4.77;;;;;;;;;;5076143;28;20457;-80
2023/06/02 07:03:45;;;;;;;14.07;3.57;;;;;;;;;;5075642;28;20502;-79
2023/06/02 07:06:12;;;;;;;7.30;3.10;;;;;;;;;;5076472;28;20520;-80
2023/06/02 07:08:41;;;;;;;9.20;3.47;;;;;;;;;;5075338;28;20900;-77
2023/06/02 07:11:11;;;;;;;7.87;3.27;;;;;;;;;;5072686;28;20571;-79
2023/06/02 07:13:40;;;;;;;19.70;5.80;;;;;;;;;;5067485;28;20486;-79
2023/06/02 07:16:07;;;;;;;10.67;3.40;;;;;;;;;;5072627;28;20527;-78
2023/06/02 07:18:36;;;;;;;10.27;3.63;;;;;;;;;;5097976;28;20545;-79
2023/06/02 07:21:04;;;;;;;17.07;5.20;;;;;;;;;;5089147;28;20453;-79
2023/06/02 07:23:31;;;;;;;11.33;4.43;;;;;;;;;;5079863;28;20449;-79
2023/06/02 07:26:00;;;;;;;8.63;3.63;;;;;;;;;;5078454;28;20717;-79
2023/06/02 07:28:28;;;;;;;10.80;4.83;;;;;;;;;;5078288;28;20455;-78
2023/06/02 07:30:55;;;;;;;11.00;4.13;;;;;;;;;;5081057;28;20449;-80
2023/06/02 07:33:25;;;;;;;13.83;4.40;;;;;;;;;;5076900;28;20530;-80
2023/06/02 07:35:55;;;;;;;10.50;4.07;;;;;;;;;;5080317;28;20463;-79
2023/06/02 07:38:22;;;;;;;11.83;3.60;;;;;;;;;;5081818;28;20476;-78
2023/06/02 07:40:49;;;;;;;15.63;4.40;;;;;;;;;;5082424;28;20511;-80
2023/06/02 07:43:19;;;;;;;9.90;4.07;;;;;;;;;;5082662;28;21015;-80
2023/06/02 07:45:47;;;;;;;11.00;4.20;;;;;;;;;;5080009;28;20817;-80
2023/06/02 07:48:16;;;;;;;11.30;3.80;;;;;;;;;;5082640;28;20810;-80
2023/06/02 07:50:44;;;;;;;10.27;3.93;;;;;;;;;;5081298;28;20507;-80
2023/06/02 07:53:12;;;;;;;12.87;4.50;;;;;;;;;;5078327;28;20476;-78
2023/06/02 07:55:40;;;;;;;9.10;4.30;;;;;;;;;;5081425;28;20457;-79
2023/06/02 07:58:10;;;;;;;11.23;3.70;;;;;;;;;;5080145;28;20573;-79
2023/06/02 08:00:42;;;;;;;15.93;5.10;;;;;;;;;;5082072;28;20472;-79
2023/06/02 08:03:10;;;;;;;8.27;3.60;;;;;;;;;;5076668;28;21352;-79
2023/06/02 08:05:38;;;;;;;8.33;4.07;;;;;;;;;;5080393;28;20503;-80
2023/06/02 08:08:06;;;;;;;21.77;6.30;;;;;;;;;;5080116;28;20453;-78
2023/06/02 08:10:34;;;;;;;7.07;3.87;;;;;;;;;;5081321;28;20881;-77
2023/06/02 08:13:03;;;;;;;10.93;3.70;;;;;;;;;;5097696;28;20490;-79
2023/06/02 08:15:32;;;;;;;9.40;4.13;;;;;;;;;;5100775;28;20523;-79
2023/06/02 08:18:01;;;;;;;10.70;3.97;;;;;;;;;;5098363;28;20545;-79
2023/06/02 08:20:30;;;;;;;10.03;4.70;;;;;;;;;;5077621;28;20482;-80
2023/06/02 08:22:57;;;;;;;8.13;3.70;;;;;;;;;;5077537;28;21083;-80
2023/06/02 08:25:25;;;;;;;11.40;5.27;;;;;;;;;;5093746;28;20456;-78
2023/06/02 08:27:52;;;;;;;20.03;7.97;;;;;;;;;;5077605;28;20457;-85
2023/06/02 08:30:20;;;;;;;12.57;5.37;;;;;;;;;;5085378;28;20495;-79
2023/06/02 08:32:49;;;;;;;11.53;4.40;;;;;;;;;;5080705;28;20496;-79
2023/06/02 08:35:25;;;;;;;7.93;4.13;;;;;;;;;;5092700;28;20456;-79
2023/06/02 08:37:56;;;;;;;11.63;4.30;;;;;;;;;;5083986;28;20515;-79
2023/06/02 08:40:27;;;;;;;8.07;3.80;;;;;;;;;;5085846;28;20460;-81
2023/06/02 08:42:57;;;;;;;12.43;3.90;;;;;;;;;;5082444;28;20744;-79
2023/06/02 08:45:26;;;;;;;10.73;3.60;;;;;;;;;;5078996;28;20488;-80
2023/06/02 08:47:54;;;;;;;14.73;4.23;;;;;;;;;;5087069;28;20454;-79
2023/06/02 08:50:26;;;;;;;11.93;4.53;;;;;;;;;;5084226;28;20498;-78
2023/06/02 08:52:54;;;;;;;11.30;3.10;;;;;;;;;;5083024;28;20448;-78
2023/06/02 08:55:22;;;;;;;9.13;4.00;;;;;;;;;;5084806;28;20457;-79
2023/06/02 08:57:50;;;;;;;9.27;3.80;;;;;;;;;;5093664;28;20553;-79
2023/06/02 09:00:18;;;;;;;10.60;4.93;;;;;;;;;;5082053;28;20511;-78
2023/06/02 09:02:52;;;;;;;9.07;4.90;;;;;;;;;;5082030;28;20856;-79
2023/06/02 09:05:22;;;;;;;11.67;4.73;;;;;;;;;;5082406;28;20470;-78
2023/06/02 09:08:08;;;;;;;10.67;4.20;;;;;;;;;;5084452;28;20496;-77
2023/06/02 09:10:40;;;;;;;5.37;3.50;;;;;;;;;;5082581;28;20452;-77
2023/06/02 09:13:08;;;;;;;13.83;6.77;;;;;;;;;;5083287;28;20497;-78
2023/06/02 09:15:36;;;;;;;10.30;4.70;;;;;;;;;;5081929;28;20497;-79
2023/06/02 09:18:14;;;;;;;11.40;5.40;;;;;;;;;;5080074;28;20555;-78
2023/06/02 09:20:41;;;;;;;9.73;5.10;;;;;;;;;;5083055;28;20456;-78
2023/06/02 09:23:11;;;;;;;11.67;4.67;;;;;;;;;;5085783;28;20536;-77
2023/06/02 09:25:40;;;;;;;8.17;4.63;;;;;;;;;;5086612;28;20872;-79
2023/06/02 09:28:09;;;;;;;6.87;4.13;;;;;;;;;;5082486;28;20508;-77
2023/06/02 09:30:37;;;;;;;10.40;4.40;;;;;;;;;;5082173;28;20457;-79
2023/06/02 09:33:07;;;;;;;8.20;5.87;;;;;;;;;;5082488;28;20464;-78
2023/06/02 09:35:36;;;;;;;9.60;5.10;;;;;;;;;;5086292;28;20833;-78
2023/06/02 09:38:05;;;;;;;15.83;4.97;;;;;;;;;;5068761;28;20495;-79
2023/06/02 09:40:48;;;;;;;13.20;5.53;;;;;;;;;;5085625;28;20464;-78
2023/06/02 09:43:19;;;;;;;8.23;3.70;;;;;;;;;;5078819;28;20761;-80
2023/06/02 09:46:03;;;;;;;11.33;4.90;;;;;;;;;;5082535;28;20449;-78
2023/06/02 09:48:31;;;;;;;9.67;4.27;;;;;;;;;;5081825;28;21095;-79
2023/06/02 09:51:08;;;;;;;10.40;4.47;;;;;;;;;;5078807;28;21137;-78
2023/06/02 09:53:37;;;;;;;8.23;4.13;;;;;;;;;;5082602;28;20495;-78
2023/06/02 09:56:06;;;;;;;9.63;4.77;;;;;;;;;;5083841;28;20444;-78
2023/06/02 09:58:35;;;;;;;6.90;3.83;;;;;;;;;;5080326;28;20508;-78
2023/06/02 10:01:03;;;;;;;7.93;4.10;;;;;;;;;;5072160;28;20464;-80
2023/06/02 10:03:32;;;;;;;14.80;5.10;;;;;;;;;;5081550;28;20544;-78
2023/06/02 10:06:05;;;;;;;9.43;4.33;;;;;;;;;;5083652;28;20768;-78
2023/06/02 10:08:44;;;;;;;13.47;6.10;;;;;;;;;;5078205;28;20477;-77
2023/06/02 10:11:17;;;;;;;8.63;3.77;;;;;;;;;;5078189;28;20469;-78
2023/06/02 10:14:08;;;;;;;10.77;4.37;;;;;;;;;;5081458;28;20507;-78
2023/06/02 10:16:47;;;;;;;12.33;3.40;;;;;;;;;;5054584;28;20465;-80
2023/06/02 10:19:24;;;;;;;5.90;3.20;;;;;;;;;;5073692;28;20509;-81
2023/06/02 10:22:04;;;;;;;9.70;3.23;;;;;;;;;;5076104;28;20456;-78
2023/06/02 10:24:45;;;;;;;8.00;3.57;;;;;;;;;;5077931;28;20469;-78
2023/06/02 10:27:29;;;;;;;11.83;2.40;;;;;;;;;;5076928;28;20468;-79
2023/06/02 10:29:58;;;;;;;5.67;2.73;;;;;;;;;;5077201;28;20555;-78
2023/06/02 10:32:33;;;;;;;6.33;3.60;;;;;;;;;;5077668;28;20928;-78
2023/06/02 10:35:00;;;;;;;5.30;2.73;;;;;;;;;;5085689;28;21062;-79
2023/06/02 10:37:28;;;;;;;7.00;2.67;;;;;;;;;;5075038;28;20964;-79
2023/06/02 10:39:57;;;;;;;10.07;3.60;;;;;;;;;;5073967;28;20475;-78
2023/06/02 10:42:25;;;;;;;7.30;3.80;;;;;;;;;;5078296;28;20465;-78
2023/06/02 10:44:54;;;;;;;11.63;3.13;;;;;;;;;;5068952;28;20453;-78
2023/06/02 10:47:50;;;;;;;9.70;3.37;;;;;;;;;;5077618;28;20582;-80
2023/06/02 10:50:43;;;;;;;8.30;3.30;;;;;;;;;;5077113;28;20491;-78
2023/06/02 10:53:13;;;;;;;5.37;2.90;;;;;;;;;;5069933;28;20453;-79
2023/06/02 10:55:42;;;;;;;6.33;2.17;;;;;;;;;;5077841;28;20480;-78
2023/06/02 10:58:12;;;;;;;11.40;4.60;;;;;;;;;;5079888;28;20911;-79
2023/06/02 11:00:49;;;;;;;6.40;2.37;;;;;;;;;;5077998;28;20590;-78
2023/06/02 11:03:35;;;;;;;6.53;3.20;;;;;;;;;;5066295;28;20484;-78
2023/06/02 11:06:22;;;;;;;5.60;2.13;;;;;;;;;;5072022;28;20461;-75
2023/06/02 11:08:51;;;;;;;4.90;2.30;;;;;;;;;;5075325;28;20464;-80
2023/06/02 11:11:37;;;;;;;8.10;3.00;;;;;;;;;;5079875;28;20776;-77
2023/06/02 11:14:04;;;;;;;4.70;2.40;;;;;;;;;;5075650;28;20464;-77
2023/06/02 11:16:33;;;;;;;7.57;2.10;;;;;;;;;;5083936;28;20544;-79
2023/06/02 11:19:02;;;;;;;5.77;2.40;;;;;;;;;;5075318;28;20916;-78
2023/06/02 11:21:30;;;;;;;5.30;2.03;;;;;;;;;;5079430;28;20449;-79
2023/06/02 11:23:59;;;;;;;5.60;1.70;;;;;;;;;;5074592;28;20461;-79
2023/06/02 11:26:28;;;;;;;5.10;1.90;;;;;;;;;;5078041;28;20483;-78
2023/06/02 11:28:56;;;;;;;2.87;1.20;;;;;;;;;;5080643;28;20456;-77
2023/06/02 11:31:24;;;;;;;5.60;1.20;;;;;;;;;;5082010;28;20471;-78
2023/06/02 11:33:52;;;;;;;7.53;1.80;;;;;;;;;;5074464;28;20462;-78
2023/06/02 11:36:39;;;;;;;6.50;1.50;;;;;;;;;;5079165;28;20504;-79
2023/06/02 11:39:11;;;;;;;3.47;1.43;;;;;;;;;;5072364;28;20481;-78
2023/06/02 11:41:44;;;;;;;7.20;1.63;;;;;;;;;;5067911;28;20458;-79
2023/06/02 11:44:12;;;;;;;5.07;1.40;;;;;;;;;;5076431;28;20453;-80
2023/06/02 11:46:42;;;;;;;4.23;1.33;;;;;;;;;;5083992;28;20437;-78
2023/06/02 11:49:10;;;;;;;6.70;1.37;;;;;;;;;;5089337;28;20475;-80
2023/06/02 11:51:39;;;;;;;7.10;2.00;;;;;;;;;;5085279;28;20508;-78
2023/06/02 11:54:07;;;;;;;6.83;1.47;;;;;;;;;;5068651;28;20446;-80
2023/06/02 11:56:36;;;;;;;5.67;1.63;;;;;;;;;;5073186;28;20483;-78
2023/06/02 11:59:17;;;;;;;5.60;1.40;;;;;;;;;;5079197;28;20477;-78
2023/06/02 12:01:45;;;;;;;4.07;1.50;;;;;;;;;;5081822;28;20441;-79
2023/06/02 12:04:13;;;;;;;4.50;1.33;;;;;;;;;;5083947;28;20503;-78
2023/06/02 12:06:50;;;;;;;4.57;1.70;;;;;;;;;;5077716;28;20488;-77
2023/06/02 12:09:19;;;;;;;3.43;1.10;;;;;;;;;;5079475;28;20463;-78
2023/06/02 12:11:47;;;;;;;4.90;1.60;;;;;;;;;;5083846;28;20449;-78
2023/06/02 12:14:15;;;;;;;6.43;1.43;;;;;;;;;;5074134;28;20572;-79
2023/06/02 12:16:47;;;;;;;3.60;1.70;;;;;;;;;;5079511;28;20508;-79
2023/06/02 12:19:19;;;;;;;3.17;1.07;;;;;;;;;;5080617;28;20480;-80
2023/06/02 12:21:49;;;;;;;3.63;1.20;;;;;;;;;;5076341;28;20464;-79
2023/06/02 12:24:37;;;;;;;4.60;1.50;;;;;;;;;;5077832;28;20472;-78
2023/06/02 12:27:20;;;;;;;3.10;1.10;;;;;;;;;;5078178;28;20482;-79
2023/06/02 12:29:48;;;;;;;4.40;1.73;;;;;;;;;;5080049;28;20461;-78
2023/06/02 12:32:16;;;;;;;2.70;1.10;;;;;;;;;;5077133;28;20460;-80
2023/06/02 12:34:44;;;;;;;3.67;0.93;;;;;;;;;;5077207;28;20749;-79
2023/06/02 12:37:29;;;;;;;5.07;1.33;;;;;;;;;;5078634;28;20458;-80
2023/06/02 12:39:56;;;;;;;3.30;1.37;;;;;;;;;;5077405;28;20484;-81
2023/06/02 12:42:24;;;;;;;3.90;1.33;;;;;;;;;;5073098;28;20469;-79
2023/06/02 12:44:54;;;;;;;2.77;1.10;;;;;;;;;;5057804;28;20446;-79
2023/06/02 12:47:22;;;;;;;5.20;1.50;;;;;;;;;;5059487;28;21339;-80
2023/06/02 12:49:52;;;;;;;3.33;1.20;;;;;;;;;;5072222;28;20510;-80
2023/06/02 12:52:19;;;;;;;2.47;1.07;;;;;;;;;;5080010;28;20444;-79
2023/06/02 12:54:48;;;;;;;2.60;1.20;;;;;;;;;;5078962;28;20453;-79
2023/06/02 12:57:18;;;;;;;3.50;1.60;;;;;;;;;;5081061;28;20460;-81
2023/06/02 12:59:52;;;;;;;3.67;1.10;;;;;;;;;;5070156;28;20486;-81
2023/06/02 13:02:19;;;;;;;5.23;1.90;;;;;;;;;;5063524;28;20460;-79
2023/06/02 13:04:47;;;;;;;3.00;1.50;;;;;;;;;;5079826;28;20451;-80
2023/06/02 13:07:14;;;;;;;2.93;1.20;;;;;;;;;;5082498;28;20452;-77
2023/06/02 13:09:42;;;;;;;2.67;1.07;;;;;;;;;;5079400;28;20453;-81
2023/06/02 13:12:17;;;;;;;3.57;1.00;;;;;;;;;;5079212;28;20465;-81
2023/06/02 13:14:48;;;;;;;2.93;1.63;;;;;;;;;;5062478;28;20449;-80
2023/06/02 13:17:22;;;;;;;5.20;1.30;;;;;;;;;;5061044;28;20454;-79
2023/06/02 13:19:57;;;;;;;3.20;1.60;;;;;;;;;;5059646;28;20632;-77
2023/06/02 13:22:51;;;;;;;3.70;1.10;;;;;;;;;;5056799;28;20453;-81
2023/06/02 13:25:23;;;;;;;4.33;1.23;;;;;;;;;;5058021;28;20489;-79
2023/06/02 13:27:52;;;;;;;3.77;1.50;;;;;;;;;;5059256;28;20462;-78
2023/06/02 13:30:21;;;;;;;6.97;1.83;;;;;;;;;;5062676;28;20502;-78
2023/06/02 13:32:48;;;;;;;4.97;1.20;;;;;;;;;;5061444;28;20870;-79
2023/06/02 13:35:18;;;;;;;2.30;1.00;;;;;;;;;;5061682;28;20461;-78
2023/06/02 13:37:45;;;;;;;2.20;0.80;;;;;;;;;;5055617;28;20719;-78
2023/06/02 13:40:17;;;;;;;4.00;1.30;;;;;;;;;;5058975;28;20492;-77
2023/06/02 13:42:44;;;;;;;4.07;1.77;;;;;;;;;;5059986;28;20890;-79
2023/06/02 13:45:14;;;;;;;4.60;2.60;;;;;;;;;;5045280;28;20910;-79
2023/06/02 13:47:41;;;;;;;5.73;1.43;;;;;;;;;;5060214;28;20581;-80
2023/06/02 13:50:10;;;;;;;8.43;1.93;;;;;;;;;;5066067;28;20732;-79
2023/06/02 13:52:40;;;;;;;3.30;1.67;;;;;;;;;;5060034;28;20458;-79
2023/06/02 13:55:08;;;;;;;2.70;1.20;;;;;;;;;;5060499;28;20470;-80
2023/06/02 13:57:36;;;;;;;3.17;1.20;;;;;;;;;;5060991;28;20454;-81
2023/06/02 14:00:15;;;;;;;6.20;1.40;;;;;;;;;;5057354;28;20482;-81
2023/06/02 14:02:54;;;;;;;4.83;1.50;;;;;;;;;;5061385;28;20462;-80
2023/06/02 14:05:23;;;;;;;3.20;1.13;;;;;;;;;;5056455;28;20998;-80
2023/06/02 14:07:52;;;;;;;4.93;1.47;;;;;;;;;;5060372;28;20892;-79
2023/06/02 14:10:21;;;;;;;3.07;1.30;;;;;;;;;;5061856;28;20525;-81
2023/06/02 14:12:49;;;;;;;2.37;1.33;;;;;;;;;;5055467;28;20493;-79
2023/06/02 14:15:17;;;;;;;2.90;1.23;;;;;;;;;;5062764;28;20454;-79
2023/06/02 14:17:44;;;;;;;2.73;1.20;;;;;;;;;;5059311;28;20438;-78
2023/06/02 14:20:14;;;;;;;3.10;1.00;;;;;;;;;;5058307;28;20485;-77
2023/06/02 14:22:42;;;;;;;2.37;1.07;;;;;;;;;;5060497;28;20511;-78
2023/06/02 14:25:11;;;;;;;3.20;1.10;;;;;;;;;;5064014;28;20462;-79
2023/06/02 14:27:39;;;;;;;5.57;1.17;;;;;;;;;;5073231;28;20445;-78
2023/06/02 14:30:08;;;;;;;3.20;2.03;;;;;;;;;;5081494;28;20449;-81
2023/06/02 14:32:36;;;;;;;2.50;1.23;;;;;;;;;;5082159;28;20522;-79
2023/06/02 14:35:03;;;;;;;4.63;1.60;;;;;;;;;;5082864;28;20483;-79
2023/06/02 14:37:34;;;;;;;2.40;1.27;;;;;;;;;;5082922;28;20441;-78
2023/06/02 14:40:07;;;;;;;3.73;1.30;;;;;;;;;;5087717;28;21055;-79
2023/06/02 14:42:35;;;;;;;1.97;0.93;;;;;;;;;;5081890;28;20449;-79
2023/06/02 14:45:14;;;;;;;3.17;1.10;;;;;;;;;;5085304;28;20461;-80
2023/06/02 14:47:47;;;;;;;5.87;1.20;;;;;;;;;;5082259;28;20441;-78
2023/06/02 14:50:18;;;;;;;4.57;1.13;;;;;;;;;;5085188;28;20490;-78